الصفحة الرئيسية
METAR-TAF:

METAR-TAF

مطار :

مطار جبل طارق

جبل طارق, جبل طارق

دائرة عرض: 36-09N, خط طول: 005-21W, ارتفاع: 5 متر

مراقبة الطقس الحالي

تاريخ ووقت الإصدار 47 دقيقة قبل الساعة 08:50UTC
ريح 10 عقدة من الغرب
درجة الحرارة 11°درجة مئوية
الرطوبة 76%
ضغط 1026 hPa
الرؤية 10 كم أو أكثر
غيوم قليلة على ارتفاع 2500 قدم

METAR: LXGB 140850Z 28010KT 9999 FEW025 11/07 Q1026 NOSIG

زمن: 10:37 (09:37 UTC)

توقعات

تاريخ ووقت الإصدار 1ساعة و 47 دقيقة قبل الساعة 07:50UTC
التوقعات صالحة من14 الساعة 09 UTC إلى 14 الساعة 18 UTC
ريح 12 عقدة من الغرب تتزايد حتى 22 عقدة
الرؤية 10 كم أو أكثر
غيوم قليلة على ارتفاع 2500 قدم

TAF: LXGB 140750Z 1409/1418 27012G22KT 9999 FEW025

أرصاد الطقس والتوقعات من أكثر من 4000 مطار (تقارير الطقس للمطار METAR والتنبؤ بالطقس بالمطارTAF).

المحطات المتاحة هي النقط الصفراء والحمراء على الخريطة.

حرك المؤشر فوق النقطة لمعرفة اسم المحطة.

ثم انقر لمعرفة أرصاد وتوقعات الطقس.

لتغيير الخارطة: اضغط على الأزرار الخضراء مع رمز الصليب الأسود للتكبير. على الزر الأخضر مع شرطة للتصغير، أو على الأسهم الخضراء للخرائط المجاورة.


METAR-TAF: